sensor_id;sensor_type;location;lat;lon;timestamp;P1;durP1;ratioP1;P2;durP2;ratioP2
79414;SDS011;68864;44.972;19.612;2023-05-07T00:02:00;9.43;;;4.95;;
79414;SDS011;68864;44.972;19.612;2023-05-07T00:04:28;5.72;;;2.05;;
79414;SDS011;68864;44.972;19.612;2023-05-07T00:07:00;10.02;;;5.45;;
79414;SDS011;68864;44.972;19.612;2023-05-07T00:09:29;4.22;;;1.70;;
79414;SDS011;68864;44.972;19.612;2023-05-07T00:11:55;9.80;;;5.55;;
79414;SDS011;68864;44.972;19.612;2023-05-07T00:14:22;6.88;;;4.20;;
79414;SDS011;68864;44.972;19.612;2023-05-07T00:16:49;4.95;;;1.83;;
79414;SDS011;68864;44.972;19.612;2023-05-07T00:19:16;6.07;;;4.55;;
79414;SDS011;68864;44.972;19.612;2023-05-07T00:21:42;7.07;;;4.45;;
79414;SDS011;68864;44.972;19.612;2023-05-07T00:24:09;5.97;;;4.32;;
79414;SDS011;68864;44.972;19.612;2023-05-07T00:26:37;7.38;;;3.55;;
79414;SDS011;68864;44.972;19.612;2023-05-07T00:29:04;7.28;;;2.92;;
79414;SDS011;68864;44.972;19.612;2023-05-07T00:31:31;15.07;;;2.33;;
79414;SDS011;68864;44.972;19.612;2023-05-07T00:33:57;14.57;;;5.43;;
79414;SDS011;68864;44.972;19.612;2023-05-07T00:36:24;16.48;;;8.90;;
79414;SDS011;68864;44.972;19.612;2023-05-07T00:38:53;15.25;;;8.77;;
79414;SDS011;68864;44.972;19.612;2023-05-07T00:41:21;8.60;;;4.60;;
79414;SDS011;68864;44.972;19.612;2023-05-07T00:43:49;7.63;;;4.97;;
79414;SDS011;68864;44.972;19.612;2023-05-07T00:46:18;9.98;;;6.70;;
79414;SDS011;68864;44.972;19.612;2023-05-07T00:48:47;6.97;;;2.47;;
79414;SDS011;68864;44.972;19.612;2023-05-07T00:51:16;9.90;;;5.55;;
79414;SDS011;68864;44.972;19.612;2023-05-07T00:53:43;9.23;;;5.07;;
79414;SDS011;68864;44.972;19.612;2023-05-07T00:58:37;10.02;;;6.05;;
79414;SDS011;68864;44.972;19.612;2023-05-07T01:01:06;10.98;;;6.03;;
79414;SDS011;68864;44.972;19.612;2023-05-07T01:03:33;9.52;;;5.28;;
79414;SDS011;68864;44.972;19.612;2023-05-07T01:06:00;7.53;;;4.70;;
79414;SDS011;68864;44.972;19.612;2023-05-07T01:08:29;8.23;;;5.28;;
79414;SDS011;68864;44.972;19.612;2023-05-07T01:10:57;6.35;;;4.38;;
79414;SDS011;68864;44.972;19.612;2023-05-07T01:13:24;11.93;;;4.72;;
79414;SDS011;68864;44.972;19.612;2023-05-07T01:15:51;8.02;;;2.17;;
79414;SDS011;68864;44.972;19.612;2023-05-07T01:18:19;8.82;;;4.85;;
79414;SDS011;68864;44.972;19.612;2023-05-07T01:20:46;11.75;;;5.10;;
79414;SDS011;68864;44.972;19.612;2023-05-07T01:23:15;13.05;;;7.72;;
79414;SDS011;68864;44.972;19.612;2023-05-07T01:25:42;14.48;;;7.70;;
79414;SDS011;68864;44.972;19.612;2023-05-07T01:28:08;9.40;;;3.28;;
79414;SDS011;68864;44.972;19.612;2023-05-07T01:30:35;12.25;;;7.22;;
79414;SDS011;68864;44.972;19.612;2023-05-07T01:33:06;9.38;;;6.80;;
79414;SDS011;68864;44.972;19.612;2023-05-07T01:35:38;11.73;;;5.47;;
79414;SDS011;68864;44.972;19.612;2023-05-07T01:38:06;10.18;;;6.63;;
79414;SDS011;68864;44.972;19.612;2023-05-07T01:40:35;9.52;;;7.43;;
79414;SDS011;68864;44.972;19.612;2023-05-07T01:43:02;11.43;;;6.22;;
79414;SDS011;68864;44.972;19.612;2023-05-07T01:45:30;12.38;;;7.50;;
79414;SDS011;68864;44.972;19.612;2023-05-07T01:47:57;7.45;;;5.45;;
79414;SDS011;68864;44.972;19.612;2023-05-07T01:50:25;7.72;;;4.55;;
79414;SDS011;68864;44.972;19.612;2023-05-07T01:55:18;6.95;;;2.63;;
79414;SDS011;68864;44.972;19.612;2023-05-07T01:57:47;9.52;;;6.30;;
79414;SDS011;68864;44.972;19.612;2023-05-07T02:00:13;8.30;;;5.07;;
79414;SDS011;68864;44.972;19.612;2023-05-07T02:02:41;17.00;;;6.60;;
79414;SDS011;68864;44.972;19.612;2023-05-07T02:05:08;8.98;;;5.47;;
79414;SDS011;68864;44.972;19.612;2023-05-07T02:07:35;8.10;;;6.47;;
79414;SDS011;68864;44.972;19.612;2023-05-07T02:10:01;8.55;;;5.43;;
79414;SDS011;68864;44.972;19.612;2023-05-07T02:12:29;7.25;;;5.10;;
79414;SDS011;68864;44.972;19.612;2023-05-07T02:14:57;7.22;;;4.53;;
79414;SDS011;68864;44.972;19.612;2023-05-07T02:17:24;6.95;;;5.03;;
79414;SDS011;68864;44.972;19.612;2023-05-07T02:19:51;8.10;;;5.78;;
79414;SDS011;68864;44.972;19.612;2023-05-07T02:22:17;9.63;;;5.30;;
79414;SDS011;68864;44.972;19.612;2023-05-07T02:24:44;10.63;;;5.47;;
79414;SDS011;68864;44.972;19.612;2023-05-07T02:27:11;6.55;;;5.10;;
79414;SDS011;68864;44.972;19.612;2023-05-07T02:29:37;9.13;;;5.32;;
79414;SDS011;68864;44.972;19.612;2023-05-07T02:32:06;7.32;;;4.72;;
79414;SDS011;68864;44.972;19.612;2023-05-07T02:34:32;8.45;;;5.88;;
79414;SDS011;68864;44.972;19.612;2023-05-07T02:36:59;8.63;;;4.35;;
79414;SDS011;68864;44.972;19.612;2023-05-07T02:39:26;9.98;;;5.20;;
79414;SDS011;68864;44.972;19.612;2023-05-07T02:41:53;11.18;;;5.93;;
79414;SDS011;68864;44.972;19.612;2023-05-07T02:44:20;17.52;;;6.50;;
79414;SDS011;68864;44.972;19.612;2023-05-07T02:46:46;14.55;;;6.45;;
79414;SDS011;68864;44.972;19.612;2023-05-07T02:49:14;29.88;;;12.48;;
79414;SDS011;68864;44.972;19.612;2023-05-07T02:51:41;21.35;;;7.50;;
79414;SDS011;68864;44.972;19.612;2023-05-07T02:54:08;16.33;;;4.35;;
79414;SDS011;68864;44.972;19.612;2023-05-07T02:56:35;17.88;;;8.45;;
79414;SDS011;68864;44.972;19.612;2023-05-07T02:59:01;31.63;;;14.98;;
79414;SDS011;68864;44.972;19.612;2023-05-07T03:01:28;23.48;;;11.27;;
79414;SDS011;68864;44.972;19.612;2023-05-07T03:03:55;11.57;;;7.88;;
79414;SDS011;68864;44.972;19.612;2023-05-07T03:06:23;10.68;;;5.80;;
79414;SDS011;68864;44.972;19.612;2023-05-07T03:08:50;10.18;;;6.10;;
79414;SDS011;68864;44.972;19.612;2023-05-07T03:11:17;9.05;;;5.28;;
79414;SDS011;68864;44.972;19.612;2023-05-07T03:13:43;10.32;;;5.97;;
79414;SDS011;68864;44.972;19.612;2023-05-07T03:16:10;8.45;;;5.97;;
79414;SDS011;68864;44.972;19.612;2023-05-07T03:18:37;8.35;;;5.05;;
79414;SDS011;68864;44.972;19.612;2023-05-07T03:21:04;11.05;;;5.15;;
79414;SDS011;68864;44.972;19.612;2023-05-07T03:23:32;8.23;;;5.45;;
79414;SDS011;68864;44.972;19.612;2023-05-07T03:25:58;6.55;;;2.03;;
79414;SDS011;68864;44.972;19.612;2023-05-07T03:28:25;7.22;;;1.80;;
79414;SDS011;68864;44.972;19.612;2023-05-07T03:30:52;9.60;;;4.65;;
79414;SDS011;68864;44.972;19.612;2023-05-07T03:33:18;7.13;;;5.03;;
79414;SDS011;68864;44.972;19.612;2023-05-07T03:35:45;7.32;;;5.90;;
79414;SDS011;68864;44.972;19.612;2023-05-07T03:38:12;13.40;;;6.22;;
79414;SDS011;68864;44.972;19.612;2023-05-07T03:40:40;36.53;;;16.25;;
79414;SDS011;68864;44.972;19.612;2023-05-07T03:43:07;44.30;;;21.42;;
79414;SDS011;68864;44.972;19.612;2023-05-07T03:45:34;42.47;;;19.50;;
79414;SDS011;68864;44.972;19.612;2023-05-07T03:48:00;28.73;;;12.25;;
79414;SDS011;68864;44.972;19.612;2023-05-07T03:50:27;25.08;;;9.23;;
79414;SDS011;68864;44.972;19.612;2023-05-07T03:52:54;23.45;;;9.38;;
79414;SDS011;68864;44.972;19.612;2023-05-07T03:55:21;24.40;;;10.98;;
79414;SDS011;68864;44.972;19.612;2023-05-07T03:57:49;35.15;;;14.43;;
79414;SDS011;68864;44.972;19.612;2023-05-07T04:00:16;16.88;;;7.55;;
79414;SDS011;68864;44.972;19.612;2023-05-07T04:02:45;13.23;;;6.72;;
79414;SDS011;68864;44.972;19.612;2023-05-07T04:05:11;11.52;;;6.18;;
79414;SDS011;68864;44.972;19.612;2023-05-07T04:07:40;9.25;;;6.35;;
79414;SDS011;68864;44.972;19.612;2023-05-07T04:10:07;7.18;;;5.15;;
79414;SDS011;68864;44.972;19.612;2023-05-07T04:12:35;10.32;;;6.47;;
79414;SDS011;68864;44.972;19.612;2023-05-07T04:15:03;11.50;;;5.38;;
79414;SDS011;68864;44.972;19.612;2023-05-07T04:17:30;8.35;;;5.50;;
79414;SDS011;68864;44.972;19.612;2023-05-07T04:19:57;7.93;;;5.22;;
79414;SDS011;68864;44.972;19.612;2023-05-07T04:22:24;7.43;;;5.28;;
79414;SDS011;68864;44.972;19.612;2023-05-07T04:24:50;9.40;;;5.05;;
79414;SDS011;68864;44.972;19.612;2023-05-07T04:27:17;6.97;;;5.28;;
79414;SDS011;68864;44.972;19.612;2023-05-07T04:29:44;9.15;;;5.15;;
79414;SDS011;68864;44.972;19.612;2023-05-07T04:32:13;7.07;;;4.30;;
79414;SDS011;68864;44.972;19.612;2023-05-07T04:34:40;9.93;;;5.97;;
79414;SDS011;68864;44.972;19.612;2023-05-07T04:37:07;9.48;;;5.38;;
79414;SDS011;68864;44.972;19.612;2023-05-07T04:39:34;7.28;;;5.03;;
79414;SDS011;68864;44.972;19.612;2023-05-07T04:42:01;7.25;;;4.75;;
79414;SDS011;68864;44.972;19.612;2023-05-07T04:44:28;9.00;;;5.35;;
79414;SDS011;68864;44.972;19.612;2023-05-07T04:46:56;9.27;;;5.60;;
79414;SDS011;68864;44.972;19.612;2023-05-07T04:49:24;10.88;;;6.20;;
79414;SDS011;68864;44.972;19.612;2023-05-07T04:51:51;11.02;;;4.47;;
79414;SDS011;68864;44.972;19.612;2023-05-07T04:54:17;10.85;;;7.05;;
79414;SDS011;68864;44.972;19.612;2023-05-07T04:56:44;16.38;;;5.43;;
79414;SDS011;68864;44.972;19.612;2023-05-07T04:59:11;9.82;;;6.65;;
79414;SDS011;68864;44.972;19.612;2023-05-07T05:01:38;17.73;;;9.27;;
79414;SDS011;68864;44.972;19.612;2023-05-07T05:04:05;21.58;;;11.23;;
79414;SDS011;68864;44.972;19.612;2023-05-07T05:06:33;23.05;;;11.65;;
79414;SDS011;68864;44.972;19.612;2023-05-07T05:09:00;23.92;;;9.57;;
79414;SDS011;68864;44.972;19.612;2023-05-07T05:11:27;30.60;;;11.15;;
79414;SDS011;68864;44.972;19.612;2023-05-07T05:13:53;24.02;;;12.18;;
79414;SDS011;68864;44.972;19.612;2023-05-07T05:16:20;22.38;;;13.07;;
79414;SDS011;68864;44.972;19.612;2023-05-07T05:18:47;17.40;;;8.60;;
79414;SDS011;68864;44.972;19.612;2023-05-07T05:21:13;11.93;;;6.40;;
79414;SDS011;68864;44.972;19.612;2023-05-07T05:23:41;9.70;;;6.07;;
79414;SDS011;68864;44.972;19.612;2023-05-07T05:26:08;12.50;;;4.97;;
79414;SDS011;68864;44.972;19.612;2023-05-07T05:28:35;11.18;;;5.88;;
79414;SDS011;68864;44.972;19.612;2023-05-07T05:31:02;15.43;;;8.68;;
79414;SDS011;68864;44.972;19.612;2023-05-07T05:33:28;15.77;;;6.65;;
79414;SDS011;68864;44.972;19.612;2023-05-07T05:35:55;8.25;;;5.70;;
79414;SDS011;68864;44.972;19.612;2023-05-07T05:38:22;8.00;;;4.78;;
79414;SDS011;68864;44.972;19.612;2023-05-07T05:40:50;7.70;;;4.80;;
79414;SDS011;68864;44.972;19.612;2023-05-07T05:43:17;8.05;;;4.80;;
79414;SDS011;68864;44.972;19.612;2023-05-07T05:45:43;7.32;;;5.50;;
79414;SDS011;68864;44.972;19.612;2023-05-07T05:48:10;10.20;;;5.43;;
79414;SDS011;68864;44.972;19.612;2023-05-07T05:50:37;8.05;;;4.85;;
79414;SDS011;68864;44.972;19.612;2023-05-07T05:53:04;8.57;;;5.53;;
79414;SDS011;68864;44.972;19.612;2023-05-07T05:55:30;7.20;;;4.90;;
79414;SDS011;68864;44.972;19.612;2023-05-07T05:57:59;3.50;;;1.77;;
79414;SDS011;68864;44.972;19.612;2023-05-07T06:00:26;7.35;;;5.55;;
79414;SDS011;68864;44.972;19.612;2023-05-07T06:05:20;5.32;;;2.10;;
79414;SDS011;68864;44.972;19.612;2023-05-07T06:07:47;4.90;;;3.78;;
79414;SDS011;68864;44.972;19.612;2023-05-07T06:10:13;5.90;;;4.85;;
79414;SDS011;68864;44.972;19.612;2023-05-07T06:12:40;6.22;;;4.30;;
79414;SDS011;68864;44.972;19.612;2023-05-07T06:15:09;8.52;;;4.22;;
79414;SDS011;68864;44.972;19.612;2023-05-07T06:17:36;9.50;;;5.80;;
79414;SDS011;68864;44.972;19.612;2023-05-07T06:20:03;6.00;;;3.67;;
79414;SDS011;68864;44.972;19.612;2023-05-07T06:22:31;8.85;;;4.22;;
79414;SDS011;68864;44.972;19.612;2023-05-07T06:24:57;7.03;;;3.67;;
79414;SDS011;68864;44.972;19.612;2023-05-07T06:27:24;7.28;;;4.15;;
79414;SDS011;68864;44.972;19.612;2023-05-07T06:29:51;5.93;;;4.68;;
79414;SDS011;68864;44.972;19.612;2023-05-07T06:32:19;12.27;;;5.57;;
79414;SDS011;68864;44.972;19.612;2023-05-07T06:34:46;5.18;;;3.72;;
79414;SDS011;68864;44.972;19.612;2023-05-07T06:37:12;6.03;;;4.00;;
79414;SDS011;68864;44.972;19.612;2023-05-07T06:39:39;9.30;;;6.10;;
79414;SDS011;68864;44.972;19.612;2023-05-07T06:42:06;6.63;;;4.50;;
79414;SDS011;68864;44.972;19.612;2023-05-07T06:44:33;9.32;;;4.90;;
79414;SDS011;68864;44.972;19.612;2023-05-07T06:46:59;7.22;;;5.00;;
79414;SDS011;68864;44.972;19.612;2023-05-07T06:49:27;4.97;;;2.67;;
79414;SDS011;68864;44.972;19.612;2023-05-07T06:51:54;5.65;;;4.10;;
79414;SDS011;68864;44.972;19.612;2023-05-07T06:56:48;5.50;;;2.97;;
79414;SDS011;68864;44.972;19.612;2023-05-07T06:59:15;8.05;;;6.47;;
79414;SDS011;68864;44.972;19.612;2023-05-07T07:01:42;6.00;;;3.25;;
79414;SDS011;68864;44.972;19.612;2023-05-07T07:04:09;5.80;;;2.17;;
79414;SDS011;68864;44.972;19.612;2023-05-07T07:06:37;6.05;;;5.45;;
79414;SDS011;68864;44.972;19.612;2023-05-07T07:09:03;5.47;;;4.90;;
79414;SDS011;68864;44.972;19.612;2023-05-07T07:11:30;4.35;;;3.40;;
79414;SDS011;68864;44.972;19.612;2023-05-07T07:13:57;3.72;;;1.17;;
79414;SDS011;68864;44.972;19.612;2023-05-07T07:16:24;6.60;;;4.63;;
79414;SDS011;68864;44.972;19.612;2023-05-07T07:18:50;6.45;;;5.78;;
79414;SDS011;68864;44.972;19.612;2023-05-07T07:21:17;9.02;;;4.38;;
79414;SDS011;68864;44.972;19.612;2023-05-07T07:23:45;5.20;;;3.33;;
79414;SDS011;68864;44.972;19.612;2023-05-07T07:26:12;5.13;;;1.40;;
79414;SDS011;68864;44.972;19.612;2023-05-07T07:28:42;5.97;;;1.55;;
79414;SDS011;68864;44.972;19.612;2023-05-07T07:31:10;13.95;;;7.28;;
79414;SDS011;68864;44.972;19.612;2023-05-07T07:33:37;6.63;;;3.63;;
79414;SDS011;68864;44.972;19.612;2023-05-07T07:38:31;5.43;;;1.70;;
79414;SDS011;68864;44.972;19.612;2023-05-07T07:40:59;4.88;;;2.90;;
79414;SDS011;68864;44.972;19.612;2023-05-07T07:43:26;9.70;;;4.05;;
79414;SDS011;68864;44.972;19.612;2023-05-07T07:45:53;6.90;;;3.22;;
79414;SDS011;68864;44.972;19.612;2023-05-07T07:48:19;4.90;;;3.72;;
79414;SDS011;68864;44.972;19.612;2023-05-07T07:50:48;7.97;;;4.25;;
79414;SDS011;68864;44.972;19.612;2023-05-07T07:53:16;4.25;;;3.08;;
79414;SDS011;68864;44.972;19.612;2023-05-07T07:55:42;7.47;;;4.03;;
79414;SDS011;68864;44.972;19.612;2023-05-07T07:58:11;6.50;;;3.65;;
79414;SDS011;68864;44.972;19.612;2023-05-07T08:00:37;5.40;;;3.55;;
79414;SDS011;68864;44.972;19.612;2023-05-07T08:03:04;7.00;;;4.32;;
79414;SDS011;68864;44.972;19.612;2023-05-07T08:05:32;6.00;;;2.70;;
79414;SDS011;68864;44.972;19.612;2023-05-07T08:07:59;8.77;;;3.17;;
79414;SDS011;68864;44.972;19.612;2023-05-07T08:12:52;7.25;;;4.07;;
79414;SDS011;68864;44.972;19.612;2023-05-07T08:17:47;5.22;;;3.40;;
79414;SDS011;68864;44.972;19.612;2023-05-07T08:20:13;12.93;;;6.25;;
79414;SDS011;68864;44.972;19.612;2023-05-07T08:22:40;9.88;;;5.72;;
79414;SDS011;68864;44.972;19.612;2023-05-07T08:25:07;14.63;;;5.30;;
79414;SDS011;68864;44.972;19.612;2023-05-07T08:27:34;9.85;;;5.72;;
79414;SDS011;68864;44.972;19.612;2023-05-07T08:30:01;11.68;;;3.78;;
79414;SDS011;68864;44.972;19.612;2023-05-07T08:32:30;29.20;;;16.08;;
79414;SDS011;68864;44.972;19.612;2023-05-07T08:34:57;13.63;;;8.80;;
79414;SDS011;68864;44.972;19.612;2023-05-07T08:39:50;14.48;;;5.57;;
79414;SDS011;68864;44.972;19.612;2023-05-07T08:42:17;18.85;;;7.28;;
79414;SDS011;68864;44.972;19.612;2023-05-07T08:44:45;8.55;;;4.55;;
79414;SDS011;68864;44.972;19.612;2023-05-07T08:47:13;8.43;;;5.63;;
79414;SDS011;68864;44.972;19.612;2023-05-07T08:52:07;20.80;;;11.35;;
79414;SDS011;68864;44.972;19.612;2023-05-07T08:57:03;9.90;;;6.53;;
79414;SDS011;68864;44.972;19.612;2023-05-07T08:59:30;9.73;;;6.65;;
79414;SDS011;68864;44.972;19.612;2023-05-07T09:04:23;11.95;;;7.03;;
79414;SDS011;68864;44.972;19.612;2023-05-07T09:06:51;12.27;;;5.50;;
79414;SDS011;68864;44.972;19.612;2023-05-07T09:09:18;10.98;;;5.93;;
79414;SDS011;68864;44.972;19.612;2023-05-07T09:11:45;10.65;;;5.63;;
79414;SDS011;68864;44.972;19.612;2023-05-07T09:16:38;6.93;;;3.78;;
79414;SDS011;68864;44.972;19.612;2023-05-07T09:19:05;7.90;;;4.55;;
79414;SDS011;68864;44.972;19.612;2023-05-07T09:21:31;9.73;;;4.65;;
79414;SDS011;68864;44.972;19.612;2023-05-07T09:23:59;12.40;;;5.35;;
79414;SDS011;68864;44.972;19.612;2023-05-07T09:26:26;17.70;;;4.82;;
79414;SDS011;68864;44.972;19.612;2023-05-07T09:28:53;11.00;;;6.28;;
79414;SDS011;68864;44.972;19.612;2023-05-07T09:31:20;8.18;;;3.38;;
79414;SDS011;68864;44.972;19.612;2023-05-07T09:33:48;8.85;;;5.28;;
79414;SDS011;68864;44.972;19.612;2023-05-07T09:36:15;10.45;;;4.93;;
79414;SDS011;68864;44.972;19.612;2023-05-07T09:38:42;7.25;;;3.83;;
79414;SDS011;68864;44.972;19.612;2023-05-07T09:41:11;13.02;;;4.78;;
79414;SDS011;68864;44.972;19.612;2023-05-07T09:43:39;6.45;;;3.33;;
79414;SDS011;68864;44.972;19.612;2023-05-07T09:46:07;8.60;;;5.50;;
79414;SDS011;68864;44.972;19.612;2023-05-07T09:48:40;7.72;;;2.30;;
79414;SDS011;68864;44.972;19.612;2023-05-07T09:51:22;10.25;;;6.47;;
79414;SDS011;68864;44.972;19.612;2023-05-07T09:53:54;7.32;;;3.92;;
79414;SDS011;68864;44.972;19.612;2023-05-07T09:56:24;12.45;;;5.13;;
79414;SDS011;68864;44.972;19.612;2023-05-07T09:58:52;8.45;;;3.45;;
79414;SDS011;68864;44.972;19.612;2023-05-07T10:01:22;15.82;;;6.72;;
79414;SDS011;68864;44.972;19.612;2023-05-07T10:03:51;6.70;;;4.13;;
79414;SDS011;68864;44.972;19.612;2023-05-07T10:06:19;8.95;;;3.50;;
79414;SDS011;68864;44.972;19.612;2023-05-07T10:08:46;6.00;;;4.25;;
79414;SDS011;68864;44.972;19.612;2023-05-07T10:11:14;7.28;;;3.40;;
79414;SDS011;68864;44.972;19.612;2023-05-07T10:13:43;6.22;;;4.40;;
79414;SDS011;68864;44.972;19.612;2023-05-07T10:16:12;10.90;;;1.38;;
79414;SDS011;68864;44.972;19.612;2023-05-07T10:18:40;5.55;;;3.35;;
79414;SDS011;68864;44.972;19.612;2023-05-07T10:21:07;6.55;;;3.47;;
79414;SDS011;68864;44.972;19.612;2023-05-07T10:23:37;9.73;;;3.65;;
79414;SDS011;68864;44.972;19.612;2023-05-07T10:26:06;7.40;;;4.55;;
79414;SDS011;68864;44.972;19.612;2023-05-07T10:28:36;6.35;;;3.80;;
79414;SDS011;68864;44.972;19.612;2023-05-07T10:31:12;5.55;;;3.65;;
79414;SDS011;68864;44.972;19.612;2023-05-07T10:33:49;6.93;;;3.13;;
79414;SDS011;68864;44.972;19.612;2023-05-07T10:36:19;9.45;;;4.93;;
79414;SDS011;68864;44.972;19.612;2023-05-07T10:38:46;8.90;;;3.28;;
79414;SDS011;68864;44.972;19.612;2023-05-07T10:41:13;9.48;;;4.40;;
79414;SDS011;68864;44.972;19.612;2023-05-07T10:43:41;5.35;;;3.22;;
79414;SDS011;68864;44.972;19.612;2023-05-07T10:46:14;6.03;;;3.85;;
79414;SDS011;68864;44.972;19.612;2023-05-07T10:51:33;4.32;;;2.67;;
79414;SDS011;68864;44.972;19.612;2023-05-07T10:54:22;7.07;;;4.75;;
79414;SDS011;68864;44.972;19.612;2023-05-07T10:56:49;6.03;;;4.00;;
79414;SDS011;68864;44.972;19.612;2023-05-07T11:02:07;7.20;;;4.07;;
79414;SDS011;68864;44.972;19.612;2023-05-07T11:04:36;6.90;;;3.83;;
79414;SDS011;68864;44.972;19.612;2023-05-07T11:10:01;27.08;;;16.13;;
79414;SDS011;68864;44.972;19.612;2023-05-07T11:15:33;11.85;;;7.20;;
79414;SDS011;68864;44.972;19.612;2023-05-07T11:18:06;13.27;;;8.45;;
79414;SDS011;68864;44.972;19.612;2023-05-07T11:20:49;6.97;;;4.57;;
79414;SDS011;68864;44.972;19.612;2023-05-07T11:26:28;6.05;;;3.63;;
79414;SDS011;68864;44.972;19.612;2023-05-07T11:28:56;7.13;;;3.72;;
79414;SDS011;68864;44.972;19.612;2023-05-07T11:31:25;5.30;;;3.00;;
79414;SDS011;68864;44.972;19.612;2023-05-07T11:33:56;8.32;;;4.68;;
79414;SDS011;68864;44.972;19.612;2023-05-07T11:36:24;4.97;;;2.17;;
79414;SDS011;68864;44.972;19.612;2023-05-07T11:38:52;3.63;;;2.75;;
79414;SDS011;68864;44.972;19.612;2023-05-07T11:41:18;5.30;;;2.40;;
79414;SDS011;68864;44.972;19.612;2023-05-07T11:43:54;5.85;;;2.55;;
79414;SDS011;68864;44.972;19.612;2023-05-07T11:46:26;7.38;;;4.85;;
79414;SDS011;68864;44.972;19.612;2023-05-07T11:48:53;8.70;;;5.93;;
79414;SDS011;68864;44.972;19.612;2023-05-07T11:51:22;4.13;;;2.78;;
79414;SDS011;68864;44.972;19.612;2023-05-07T11:53:51;6.50;;;4.15;;
79414;SDS011;68864;44.972;19.612;2023-05-07T11:56:18;3.90;;;1.98;;
79414;SDS011;68864;44.972;19.612;2023-05-07T11:58:46;8.68;;;2.50;;
79414;SDS011;68864;44.972;19.612;2023-05-07T12:01:13;3.75;;;2.80;;
79414;SDS011;68864;44.972;19.612;2023-05-07T12:03:42;3.80;;;0.82;;
79414;SDS011;68864;44.972;19.612;2023-05-07T12:06:12;6.28;;;2.08;;
79414;SDS011;68864;44.972;19.612;2023-05-07T12:08:40;4.40;;;3.05;;
79414;SDS011;68864;44.972;19.612;2023-05-07T12:11:08;4.55;;;3.30;;
79414;SDS011;68864;44.972;19.612;2023-05-07T12:13:36;12.23;;;7.88;;
79414;SDS011;68864;44.972;19.612;2023-05-07T12:16:04;4.55;;;2.50;;
79414;SDS011;68864;44.972;19.612;2023-05-07T12:18:33;9.02;;;3.33;;
79414;SDS011;68864;44.972;19.612;2023-05-07T12:21:00;8.30;;;3.15;;
79414;SDS011;68864;44.972;19.612;2023-05-07T12:23:29;5.55;;;2.40;;
79414;SDS011;68864;44.972;19.612;2023-05-07T12:25:56;5.45;;;2.80;;
79414;SDS011;68864;44.972;19.612;2023-05-07T12:30:50;4.60;;;2.85;;
79414;SDS011;68864;44.972;19.612;2023-05-07T12:33:18;5.72;;;2.50;;
79414;SDS011;68864;44.972;19.612;2023-05-07T12:35:46;7.63;;;3.90;;
79414;SDS011;68864;44.972;19.612;2023-05-07T12:38:14;8.70;;;6.72;;
79414;SDS011;68864;44.972;19.612;2023-05-07T12:40:44;10.02;;;3.13;;
79414;SDS011;68864;44.972;19.612;2023-05-07T12:43:15;10.88;;;5.90;;
79414;SDS011;68864;44.972;19.612;2023-05-07T12:45:43;4.38;;;2.72;;
79414;SDS011;68864;44.972;19.612;2023-05-07T12:48:10;4.65;;;2.50;;
79414;SDS011;68864;44.972;19.612;2023-05-07T12:50:37;4.60;;;3.05;;
79414;SDS011;68864;44.972;19.612;2023-05-07T12:53:04;3.72;;;2.25;;
79414;SDS011;68864;44.972;19.612;2023-05-07T12:55:34;6.57;;;4.05;;
79414;SDS011;68864;44.972;19.612;2023-05-07T12:58:09;5.75;;;3.25;;
79414;SDS011;68864;44.972;19.612;2023-05-07T13:00:42;7.72;;;3.72;;
79414;SDS011;68864;44.972;19.612;2023-05-07T13:03:09;7.03;;;3.08;;
79414;SDS011;68864;44.972;19.612;2023-05-07T13:05:36;5.72;;;3.53;;
79414;SDS011;68864;44.972;19.612;2023-05-07T13:08:03;6.60;;;4.97;;
79414;SDS011;68864;44.972;19.612;2023-05-07T13:10:30;6.47;;;3.67;;
79414;SDS011;68864;44.972;19.612;2023-05-07T13:12:57;3.30;;;1.92;;
79414;SDS011;68864;44.972;19.612;2023-05-07T13:15:26;3.03;;;2.22;;
79414;SDS011;68864;44.972;19.612;2023-05-07T13:17:53;5.75;;;4.10;;
79414;SDS011;68864;44.972;19.612;2023-05-07T13:20:20;6.03;;;4.18;;
79414;SDS011;68864;44.972;19.612;2023-05-07T13:22:47;4.07;;;2.45;;
79414;SDS011;68864;44.972;19.612;2023-05-07T13:25:14;5.15;;;3.35;;
79414;SDS011;68864;44.972;19.612;2023-05-07T13:30:07;3.53;;;2.25;;
79414;SDS011;68864;44.972;19.612;2023-05-07T13:32:36;5.97;;;3.38;;
79414;SDS011;68864;44.972;19.612;2023-05-07T13:35:02;5.85;;;3.65;;
79414;SDS011;68864;44.972;19.612;2023-05-07T13:37:29;3.78;;;2.92;;
79414;SDS011;68864;44.972;19.612;2023-05-07T13:42:23;3.38;;;2.78;;
79414;SDS011;68864;44.972;19.612;2023-05-07T13:44:49;4.63;;;4.15;;
79414;SDS011;68864;44.972;19.612;2023-05-07T13:47:16;5.93;;;4.00;;
79414;SDS011;68864;44.972;19.612;2023-05-07T13:49:44;4.40;;;3.45;;
79414;SDS011;68864;44.972;19.612;2023-05-07T13:52:11;7.22;;;5.13;;
79414;SDS011;68864;44.972;19.612;2023-05-07T13:54:38;7.03;;;5.03;;
79414;SDS011;68864;44.972;19.612;2023-05-07T13:57:05;7.03;;;3.70;;
79414;SDS011;68864;44.972;19.612;2023-05-07T14:01:58;4.88;;;3.28;;
79414;SDS011;68864;44.972;19.612;2023-05-07T14:06:54;3.95;;;2.85;;
79414;SDS011;68864;44.972;19.612;2023-05-07T14:09:21;6.18;;;3.75;;
79414;SDS011;68864;44.972;19.612;2023-05-07T14:14:16;5.90;;;4.10;;
79414;SDS011;68864;44.972;19.612;2023-05-07T14:16:43;4.90;;;3.42;;
79414;SDS011;68864;44.972;19.612;2023-05-07T14:19:10;5.53;;;2.97;;
79414;SDS011;68864;44.972;19.612;2023-05-07T14:21:37;3.53;;;2.60;;
79414;SDS011;68864;44.972;19.612;2023-05-07T14:26:32;5.72;;;3.05;;
79414;SDS011;68864;44.972;19.612;2023-05-07T14:28:59;4.47;;;2.28;;
79414;SDS011;68864;44.972;19.612;2023-05-07T14:33:52;3.40;;;3.10;;
79414;SDS011;68864;44.972;19.612;2023-05-07T14:36:19;4.18;;;2.97;;
79414;SDS011;68864;44.972;19.612;2023-05-07T14:38:48;4.32;;;2.63;;
79414;SDS011;68864;44.972;19.612;2023-05-07T14:41:16;3.65;;;1.92;;
79414;SDS011;68864;44.972;19.612;2023-05-07T14:43:43;2.85;;;2.20;;
79414;SDS011;68864;44.972;19.612;2023-05-07T14:46:15;3.45;;;2.38;;
79414;SDS011;68864;44.972;19.612;2023-05-07T14:48:42;4.50;;;3.42;;
79414;SDS011;68864;44.972;19.612;2023-05-07T14:51:10;3.72;;;2.30;;
79414;SDS011;68864;44.972;19.612;2023-05-07T14:53:36;5.32;;;2.70;;
79414;SDS011;68864;44.972;19.612;2023-05-07T14:56:03;4.50;;;1.77;;
79414;SDS011;68864;44.972;19.612;2023-05-07T14:58:32;3.85;;;2.22;;
79414;SDS011;68864;44.972;19.612;2023-05-07T15:00:59;2.60;;;2.30;;
79414;SDS011;68864;44.972;19.612;2023-05-07T15:03:26;5.78;;;2.42;;
79414;SDS011;68864;44.972;19.612;2023-05-07T15:05:53;6.68;;;2.22;;
79414;SDS011;68864;44.972;19.612;2023-05-07T15:10:46;7.25;;;2.70;;
79414;SDS011;68864;44.972;19.612;2023-05-07T15:13:13;5.03;;;2.40;;
79414;SDS011;68864;44.972;19.612;2023-05-07T15:15:41;6.22;;;2.35;;
79414;SDS011;68864;44.972;19.612;2023-05-07T15:18:09;5.38;;;2.17;;
79414;SDS011;68864;44.972;19.612;2023-05-07T15:23:02;4.57;;;3.72;;
79414;SDS011;68864;44.972;19.612;2023-05-07T15:25:30;7.78;;;3.47;;
79414;SDS011;68864;44.972;19.612;2023-05-07T15:27:58;8.35;;;3.20;;
79414;SDS011;68864;44.972;19.612;2023-05-07T15:32:53;4.82;;;3.28;;
79414;SDS011;68864;44.972;19.612;2023-05-07T15:35:20;4.70;;;3.45;;
79414;SDS011;68864;44.972;19.612;2023-05-07T15:37:47;4.43;;;2.55;;
79414;SDS011;68864;44.972;19.612;2023-05-07T15:40:15;4.32;;;2.55;;
79414;SDS011;68864;44.972;19.612;2023-05-07T15:42:42;5.03;;;3.28;;
79414;SDS011;68864;44.972;19.612;2023-05-07T15:45:11;3.97;;;2.75;;